Flight Track Log - Related Links

Times and Time Zones

All times are in EDT time to prevent confusion due to time zone crossing. See the SWA2749 flight status page for this flight to view local times or setup timezone preferences in your user account.

Time Position Orientation Groundspeed Altitude Reporting Facility
EDT Latitude Longitude Course Direction KTS MPH feet Rate Location/Type
Fri 09:36:37 PM 45.6114 -122.6617 302° West 190 219 2,800  Level Seattle Center
Fri 09:38:04 PM 45.6522 -122.7669 299° West 216 249 7,000 3,541 Climbing Seattle Center
Fri 09:38:39 PM 45.6258 -122.8319 240° Southwest 304 350 10,000 3,738 Climbing Seattle Center
Fri 09:40:06 PM 45.5122 -122.7367 150° Southeast 360 414 14,600 2,838 Climbing Seattle Center
Fri 09:41:07 PM 45.4372 -122.6372 137° Southeast 368 423 17,000 2,705 Climbing Seattle Center
Fri 09:42:08 PM 45.3594 -122.5375 138° Southeast 374 430 20,100 3,000 Climbing Seattle Center
Fri 09:43:09 PM 45.2758 -122.4278 137° Southeast 400 460 23,100 2,803 Climbing Seattle Center
Fri 09:44:10 PM 45.1886 -122.3133 137° Southeast 420 483 25,800 2,508 Climbing Seattle Center
Fri 09:45:11 PM 45.0961 -122.1953 138° Southeast 438 504 28,200 1,820 Climbing Seattle Center
Fri 09:46:12 PM 44.9842 -122.0989 149° Southeast 472 543 29,500 1,869 Climbing Seattle Center
Fri 09:47:13 PM 44.8661 -122.0200 155° Southeast 477 549 32,000 2,331 Climbing Seattle Center
Fri 09:48:13 PM 44.7494 -121.9419 155° Southeast 468 539 34,200 2,231 Climbing Seattle Center
Fri 09:49:14 PM 44.6247 -121.8583 154° Southeast 462 532 36,500 1,918 Climbing Seattle Center
Fri 09:50:15 PM 44.5094 -121.7833 155° Southeast 461 531 38,100 1,525 Climbing Seattle Center
Fri 09:51:16 PM 44.3956 -121.7089 155° Southeast 456 525 39,600 1,377 Climbing Seattle Center
Fri 09:52:17 PM 44.2817 -121.6356 155° Southeast 453 521 40,900 639 Climbing Seattle Center
Fri 09:53:18 PM 44.1692 -121.5617 155° Southeast 451 519 40,900  Level Seattle Center
Fri 09:54:19 PM 44.0561 -121.4883 155° Southeast 451 519 40,900  Level Seattle Center
Fri 09:55:20 PM 43.9417 -121.4139 155° Southeast 457 526 40,900  Level Seattle Center
Fri 09:56:21 PM 43.8183 -121.3328 155° Southeast 454 522 40,900  Level Seattle Center
Fri 09:57:21 PM 43.7050 -121.2506 152° Southeast 458 527 40,900  Level Seattle Center
Fri 09:58:22 PM 43.5917 -121.1708 153° Southeast 458 527 40,900  Level Seattle Center
Fri 09:59:23 PM 43.4800 -121.0911 153° Southeast 454 522 40,900  Level Seattle Center
Fri 10:00:24 PM 43.3697 -121.0150 153° Southeast 449 517 40,900  Level Seattle Center
Fri 10:01:25 PM 43.2611 -120.9403 153° Southeast 442 509 40,900  Level Seattle Center
Fri 10:02:26 PM 43.1522 -120.8672 154° Southeast 438 504 40,900  Level Seattle Center
Fri 10:03:27 PM 43.0436 -120.7928 153° Southeast 437 503 40,900  Level Seattle Center
Fri 10:04:27 PM 42.9294 -120.7136 153° Southeast 449 517 40,900  Level Seattle Center
Fri 10:05:28 PM 42.7978 -120.6233 153° Southeast 444 511 40,900  Level Seattle Center
Fri 10:06:29 PM 42.6897 -120.5511 154° Southeast 436 502 40,900  Level Seattle Center
Fri 10:07:30 PM 42.5803 -120.4769 153° Southeast 435 501 40,900  Level Seattle Center
Fri 10:08:31 PM 42.4686 -120.4011 153° Southeast 444 511 40,900  Level Seattle Center
Fri 10:09:32 PM 42.3594 -120.3261 153° Southeast 443 510 40,900  Level Seattle Center
Fri 10:10:33 PM 42.2483 -120.2536 154° Southeast 442 509 40,900  Level Seattle Center
Fri 10:11:34 PM 42.1367 -120.1783 153° Southeast 447 514 40,900  Level Seattle Center
Fri 10:12:35 PM 42.0278 -120.1061 154° Southeast 437 503 40,900  Level Seattle Center
Fri 10:13:36 PM 41.9206 -120.0350 154° Southeast 433 498 40,900  Level Seattle Center
Fri 10:14:37 PM 41.8133 -119.9628 153° Southeast 431 496 40,900  Level Seattle Center
Fri 10:15:38 PM 41.7033 -119.8908 154° Southeast 435 501 40,900  Level Seattle Center
Fri 10:16:39 PM 41.5947 -119.8194 154° Southeast 436 502 40,900  Level Seattle Center
Fri 10:18:04 PM 41.4422 -119.7208 154° Southeast 433 498 40,900  Level Seattle Center
Fri 10:18:52 PM 41.3572 -119.6594 152° Southeast 434 499 40,900  Level Oakland Center
Fri 10:19:53 PM 41.2494 -119.5894 154° Southeast 433 498 40,900  Level Oakland Center
Fri 10:20:54 PM 41.1400 -119.5200 154° Southeast 435 501 40,900  Level Oakland Center
Fri 10:21:54 PM 41.0106 -119.4386 155° Southeast 437 503 40,900  Level Oakland Center
Fri 10:22:55 PM 40.9058 -119.3728 155° Southeast 435 501 40,900  Level Oakland Center
Fri 10:23:56 PM 40.8061 -119.3078 154° Southeast 430 495 40,900  Level Oakland Center
Fri 10:24:57 PM 40.6758 -119.2250 154° Southeast 434 499 40,900  Level Oakland Center
Fri 10:25:58 PM 40.5675 -119.1589 155° Southeast 432 497 40,900  Level Oakland Center
Fri 10:26:59 PM 40.4581 -119.0878 154° Southeast 435 501 40,900  Level Oakland Center
Fri 10:28:00 PM 40.3494 -119.0219 155° Southeast 427 491 40,900  Level Oakland Center
Fri 10:29:01 PM 40.2397 -118.9539 155° Southeast 440 506 40,900  Level Oakland Center
Fri 10:30:02 PM 40.1325 -118.8847 154° Southeast 432 497 40,900  Level Oakland Center
Fri 10:30:46 PM 40.0444 -118.8353 157° South 431 496 40,900  Level Salt Lake Center
Fri 10:31:47 PM 39.9367 -118.7664 154° Southeast 431 496 40,900  Level Salt Lake Center
Fri 10:32:48 PM 39.8272 -118.6994 155° Southeast 433 498 40,900  Level Salt Lake Center
Fri 10:33:50 PM 39.7175 -118.6314 154° Southeast 434 499 40,900  Level Salt Lake Center
Fri 10:34:51 PM 39.6067 -118.5642 155° Southeast 435 501 40,900  Level Salt Lake Center
Fri 10:35:52 PM 39.4953 -118.4950 154° Southeast 436 502 40,900  Level Salt Lake Center
Fri 10:36:54 PM 39.3822 -118.4269 155° Southeast 439 505 40,900  Level Salt Lake Center
Fri 10:38:10 PM 39.2489 -118.3456 155° Southeast 437 503 40,900  Level Oakland Center
Fri 10:39:11 PM 39.1381 -118.2794 155° Southeast 436 502 40,900  Level Oakland Center
Fri 10:40:12 PM 39.0278 -118.2131 155° Southeast 437 503 40,900  Level Oakland Center
Fri 10:41:13 PM 38.9164 -118.1472 155° Southeast 439 505 40,900 -148 Level Oakland Center
Fri 10:42:14 PM 38.8058 -118.0800 155° Southeast 439 505 40,600 -595 Descending Oakland Center
Fri 10:43:14 PM 38.6964 -118.0156 155° Southeast 433 498 39,700 -942 Descending Oakland Center
Fri 10:44:15 PM 38.5831 -117.9461 154° Southeast 434 499 38,700 -984 Descending Oakland Center
Fri 10:45:16 PM 38.4767 -117.8717 151° Southeast 436 502 37,700 -934 Descending Oakland Center
Fri 10:46:17 PM 38.3697 -117.7969 151° Southeast 438 504 36,800 -1,033 Descending Oakland Center
Fri 10:47:18 PM 38.2425 -117.7114 152° Southeast 433 498 35,600 -1,033 Descending Oakland Center
Fri 10:48:19 PM 38.1367 -117.6392 152° Southeast 434 499 34,700 -885 Descending Oakland Center
Fri 10:49:20 PM 38.0297 -117.5672 152° Southeast 439 505 33,800 -885 Descending Oakland Center
Fri 10:50:21 PM 37.9214 -117.4939 152° Southeast 444 511 32,900 -443 Descending Oakland Center
Fri 10:51:22 PM 37.8136 -117.4194 151° Southeast 446 513 32,900 49 Level Oakland Center
Fri 10:52:23 PM 37.7039 -117.3464 152° Southeast 447 514 33,000 49 Climbing Oakland Center
Fri 10:53:24 PM 37.5956 -117.2739 152° Southeast 444 511 33,000  Level Oakland Center
Fri 10:54:25 PM 37.4875 -117.2011 152° Southeast 442 509 33,000  Level Oakland Center
Fri 10:55:26 PM 37.3794 -117.1303 152° Southeast 439 505 33,000  Level Oakland Center
Fri 10:56:27 PM 37.2503 -117.0447 152° Southeast 437 503 33,000  Level Oakland Center
Fri 10:57:28 PM 37.1425 -116.9733 152° Southeast 438 504 33,000  Level Oakland Center
Fri 10:58:29 PM 37.0347 -116.9017 152° Southeast 438 504 33,000  Level Oakland Center
Fri 10:59:30 PM 36.9258 -116.8317 153° Southeast 438 504 33,000  Level Oakland Center
Fri 11:00:31 PM 36.8178 -116.7592 152° Southeast 440 506 33,000 -541 Level Oakland Center
Fri 11:01:32 PM 36.7319 -116.6486 134° Southeast 446 513 31,900 -1,721 Descending Oakland Center
Fri 11:02:33 PM 36.6533 -116.5386 132° Southeast 431 496 29,500 -2,311 Descending Oakland Center
Fri 11:03:34 PM 36.5789 -116.4314 131° Southeast 416 479 27,200 -2,162 Descending Oakland Center
Fri 11:04:49 PM 36.4908 -116.3064 131° Southeast 410 472 24,600 -2,496 Descending Los Angeles Center
Fri 11:05:51 PM 36.4017 -116.1767 130° Southeast 424 488 21,500 -2,780 Descending Los Angeles Center
Fri 11:06:52 PM 36.3283 -116.0747 132° Southeast 401 461 18,900 -2,439 Descending Los Angeles Center
Fri 11:07:54 PM 36.2508 -115.9683 132° Southeast 386 444 16,500 -1,415 Descending Los Angeles Center
Fri 11:08:55 PM 36.1931 -115.8744 127° Southeast 346 398 16,000 -246 Descending Los Angeles Center
Fri 11:09:56 PM 36.1606 -115.7758 112° Southeast 364 419 16,000  Level Los Angeles Center
Fri 11:10:58 PM 36.1133 -115.6314 112° Southeast 370 426 16,000 -49 Level Los Angeles Center
Fri 11:11:59 PM 36.0775 -115.5203 112° Southeast 372 428 15,900 -1,024 Descending Los Angeles Center
Fri 11:13:01 PM 36.0408 -115.4067 112° Southeast 365 420 13,900 -2,244 Descending Los Angeles Center
Fri 11:14:02 PM 36.0233 -115.2933 101° East 351 404 11,300 -2,049 Descending Los Angeles Center
Fri 11:15:04 PM 36.0167 -115.1822 94° East 333 383 9,700 -1,388 Descending Los Angeles Center
Fri 11:16:03 PM 36.0103 -115.0836 95° East 249 287 8,500 -1,400 Descending Los Angeles Center
Fri 11:17:04 PM 36.0061 -115.0053 94° East 225 259 6,900 -1,774 Descending Los Angeles Center
Fri 11:17:58 PM 36.0444 -114.9739 34° Northeast 214 246 5,100 -1,617 Descending Los Angeles Center
Fri 11:18:59 PM 36.0772 -115.0056 322° Northwest 170 196 3,800 -984 Descending Los Angeles Center
Fri 11:20:06 PM 36.0719 -115.0606 263° West 138 159 3,000 -703 Descending Los Angeles Center
Fri 11:21:07 PM 36.0742 -115.1103 273° West 141 162 2,300 -422 Descending Los Angeles Center
Fri 11:22:14 PM 36.0761 -115.1492 274° West 142 163 2,100 -179 Descending Los Angeles Center

Login

Don't have an account? Register now (free) for customized features, flight alerts, and more!